createdAt,value
2017-02-08T00:00:42.791Z,1020.81
2017-02-08T00:01:42.725Z,1020.79
2017-02-08T00:02:42.662Z,1020.82
2017-02-08T00:03:42.598Z,1020.82
2017-02-08T00:04:42.535Z,1020.85
2017-02-08T00:05:42.471Z,1020.83
2017-02-08T00:06:42.408Z,1020.85
2017-02-08T00:07:42.344Z,1020.85
2017-02-08T00:08:42.283Z,1020.85
2017-02-08T00:09:42.218Z,1020.92
2017-02-08T00:10:42.155Z,1020.89
2017-02-08T00:11:42.091Z,1020.87
2017-02-08T00:12:42.029Z,1020.89
2017-02-08T00:13:41.965Z,1020.93
2017-02-08T00:14:41.901Z,1020.95
2017-02-08T00:15:41.837Z,1020.92
2017-02-08T00:16:41.775Z,1020.95
2017-02-08T00:17:41.713Z,1021
2017-02-08T00:18:41.649Z,1020.98
2017-02-08T00:19:41.585Z,1021.02
2017-02-08T00:20:41.521Z,1021.03
2017-02-08T00:21:41.457Z,1021.01
2017-02-08T00:22:41.394Z,1021.04
2017-02-08T00:23:41.331Z,1021.01
2017-02-08T00:24:41.268Z,1021
2017-02-08T00:25:41.204Z,1021.04
2017-02-08T00:26:41.143Z,1021.03
2017-02-08T00:27:41.079Z,1021.06
2017-02-08T00:28:41.016Z,1021.07
2017-02-08T00:29:40.951Z,1021.08
2017-02-08T00:30:40.888Z,1021.08
2017-02-08T00:31:40.826Z,1021.08
2017-02-08T00:32:40.763Z,1021.12
2017-02-08T00:33:40.699Z,1021.13
2017-02-08T00:34:40.635Z,1021.15
2017-02-08T00:35:40.571Z,1021.15
2017-02-08T00:36:40.508Z,1021.16
2017-02-08T00:37:40.446Z,1021.15
2017-02-08T00:38:40.381Z,1021.15
2017-02-08T00:39:40.319Z,1021.15
2017-02-08T00:40:40.254Z,1021.18
2017-02-08T00:41:40.192Z,1021.14
2017-02-08T00:42:40.129Z,1021.18
2017-02-08T00:43:40.076Z,1021.12
2017-02-08T00:44:40.002Z,1021.14
2017-02-08T00:45:39.941Z,1021.17
2017-02-08T00:46:39.877Z,1021.15
2017-02-08T00:47:39.814Z,1021.11
2017-02-08T00:48:39.751Z,1021.13
2017-02-08T00:49:39.687Z,1021.11
2017-02-08T00:50:39.626Z,1021.12
2017-02-08T00:51:39.558Z,1021.16
2017-02-08T00:52:39.497Z,1021.12
2017-02-08T00:53:39.434Z,1021.12
2017-02-08T00:54:39.395Z,1021.09
2017-02-08T00:55:39.306Z,1021.1
2017-02-08T00:56:39.243Z,1021.11
2017-02-08T00:57:39.183Z,1021.1
2017-02-08T00:58:39.116Z,1021.09
2017-02-08T00:59:39.054Z,1021.12
2017-02-08T01:01:16.787Z,1021.13
2017-02-08T01:02:10.413Z,1021.15
2017-02-08T01:03:10.348Z,1021.13
2017-02-08T01:04:10.283Z,1021.14
2017-02-08T01:05:10.219Z,1021.18
2017-02-08T01:06:10.163Z,1021.17
2017-02-08T01:07:10.094Z,1021.18
2017-02-08T01:08:10.030Z,1021.17
2017-02-08T01:09:09.967Z,1021.16
2017-02-08T01:10:09.903Z,1021.23
2017-02-08T01:11:09.853Z,1021.17
2017-02-08T01:12:09.778Z,1021.2
2017-02-08T01:13:09.715Z,1021.22
2017-02-08T01:14:09.651Z,1021.23
2017-02-08T01:15:09.586Z,1021.21
2017-02-08T01:16:09.525Z,1021.24
2017-02-08T01:17:09.460Z,1021.29
2017-02-08T01:18:09.398Z,1021.28
2017-02-08T01:19:09.333Z,1021.32
2017-02-08T01:20:09.271Z,1021.31
2017-02-08T01:21:09.208Z,1021.31
2017-02-08T01:22:09.143Z,1021.32
2017-02-08T01:23:09.081Z,1021.38
2017-02-08T01:24:09.017Z,1021.35
2017-02-08T01:25:08.954Z,1021.33
2017-02-08T01:26:08.890Z,1021.33
2017-02-08T01:27:08.827Z,1021.33
2017-02-08T01:28:08.764Z,1021.35
2017-02-08T01:29:08.701Z,1021.34
2017-02-08T01:30:08.635Z,1021.32
2017-02-08T01:31:08.573Z,1021.31
2017-02-08T01:32:08.509Z,1021.32
2017-02-08T01:33:08.446Z,1021.3
2017-02-08T01:34:08.383Z,1021.3
2017-02-08T01:35:08.320Z,1021.27
2017-02-08T01:36:08.258Z,1021.22
2017-02-08T01:37:08.193Z,1021.26
2017-02-08T01:38:08.129Z,1021.26
2017-02-08T01:39:08.066Z,1021.26
2017-02-08T01:40:08.004Z,1021.24
2017-02-08T01:41:07.938Z,1021.24
2017-02-08T01:42:07.876Z,1021.25
2017-02-08T01:43:07.813Z,1021.24
2017-02-08T01:44:07.750Z,1021.27
2017-02-08T01:45:07.685Z,1021.26
2017-02-08T01:46:07.623Z,1021.23
2017-02-08T01:47:07.561Z,1021.24
2017-02-08T01:48:07.497Z,1021.21
2017-02-08T01:49:07.432Z,1021.3
2017-02-08T01:50:07.368Z,1021.28
2017-02-08T01:51:07.307Z,1021.28
2017-02-08T01:52:07.244Z,1021.28
2017-02-08T01:53:07.181Z,1021.26
2017-02-08T01:54:07.119Z,1021.27
2017-02-08T01:55:07.054Z,1021.26
2017-02-08T01:56:06.990Z,1021.27
2017-02-08T01:57:06.927Z,1021.3
2017-02-08T01:58:06.866Z,1021.31
2017-02-08T01:59:06.799Z,1021.33
2017-02-08T02:00:06.737Z,1021.31
2017-02-08T02:01:06.673Z,1021.34
2017-02-08T02:02:06.609Z,1021.32
2017-02-08T02:03:06.546Z,1021.33
2017-02-08T02:04:06.483Z,1021.34
2017-02-08T02:05:06.419Z,1021.32
2017-02-08T02:06:06.358Z,1021.36
2017-02-08T02:07:06.293Z,1021.39
2017-02-08T02:08:06.229Z,1021.36
2017-02-08T02:09:06.168Z,1021.41
2017-02-08T02:10:06.102Z,1021.38
2017-02-08T02:11:06.039Z,1021.41
2017-02-08T02:12:05.977Z,1021.38
2017-02-08T02:13:05.915Z,1021.39
2017-02-08T02:14:05.850Z,1021.4
2017-02-08T02:15:05.789Z,1021.36
2017-02-08T02:16:05.723Z,1021.36
2017-02-08T02:17:05.660Z,1021.38
2017-02-08T02:18:05.595Z,1021.35
2017-02-08T02:19:05.533Z,1021.39
2017-02-08T02:20:05.470Z,1021.42
2017-02-08T02:21:05.406Z,1021.39
2017-02-08T02:22:05.343Z,1021.4
2017-02-08T02:23:05.280Z,1021.42
2017-02-08T02:24:05.216Z,1021.42
2017-02-08T02:25:05.153Z,1021.4
2017-02-08T02:26:05.090Z,1021.34
2017-02-08T02:27:05.028Z,1021.38
2017-02-08T02:28:04.963Z,1021.4
2017-02-08T02:29:04.900Z,1021.37
2017-02-08T02:30:04.840Z,1021.39
2017-02-08T02:31:04.774Z,1021.37
2017-02-08T02:32:04.710Z,1021.38
2017-02-08T02:33:04.648Z,1021.42
2017-02-08T02:34:04.585Z,1021.45
2017-02-08T02:35:04.521Z,1021.37
2017-02-08T02:36:04.460Z,1021.4
2017-02-08T02:37:04.395Z,1021.39
2017-02-08T02:38:04.332Z,1021.4
2017-02-08T02:39:04.267Z,1021.41
2017-02-08T02:40:04.204Z,1021.41
2017-02-08T02:41:04.142Z,1021.39
2017-02-08T02:42:04.078Z,1021.44
2017-02-08T02:43:04.015Z,1021.44
2017-02-08T02:44:03.952Z,1021.44
2017-02-08T02:45:03.889Z,1021.44
2017-02-08T02:46:03.824Z,1021.5
2017-02-08T02:47:03.761Z,1021.52
2017-02-08T02:48:03.699Z,1021.53
2017-02-08T02:49:03.636Z,1021.53
2017-02-08T02:50:03.572Z,1021.49
2017-02-08T02:51:03.509Z,1021.51
2017-02-08T02:52:03.456Z,1021.52
2017-02-08T02:53:03.383Z,1021.5
2017-02-08T02:54:03.319Z,1021.49
2017-02-08T02:55:03.255Z,1021.52
2017-02-08T02:56:03.192Z,1021.53
2017-02-08T02:57:03.129Z,1021.53
2017-02-08T02:58:03.067Z,1021.54
2017-02-08T02:59:03.003Z,1021.53
2017-02-08T03:00:02.940Z,1021.51
2017-02-08T03:01:02.876Z,1021.55
2017-02-08T03:02:02.811Z,1021.56
2017-02-08T03:03:02.750Z,1021.56
2017-02-08T03:04:02.688Z,1021.58
2017-02-08T03:05:02.622Z,1021.55
2017-02-08T03:06:02.559Z,1021.59
2017-02-08T03:07:02.497Z,1021.58
2017-02-08T03:08:02.432Z,1021.57
2017-02-08T03:09:02.371Z,1021.56
2017-02-08T03:10:02.314Z,1021.52
2017-02-08T03:11:02.243Z,1021.5
2017-02-08T03:12:02.179Z,1021.5
2017-02-08T03:13:02.117Z,1021.49
2017-02-08T03:14:02.053Z,1021.46
2017-02-08T03:15:01.992Z,1021.46
2017-02-08T03:16:01.926Z,1021.47
2017-02-08T03:17:01.863Z,1021.47
2017-02-08T03:18:01.801Z,1021.44
2017-02-08T03:19:01.737Z,1021.43
2017-02-08T03:20:01.674Z,1021.43
2017-02-08T03:21:01.613Z,1021.52
2017-02-08T03:22:01.549Z,1021.49
2017-02-08T03:23:01.483Z,1021.57
2017-02-08T03:24:01.420Z,1021.53
2017-02-08T03:25:01.358Z,1021.54
2017-02-08T03:26:01.295Z,1021.57
2017-02-08T03:27:01.230Z,1021.56
2017-02-08T03:28:01.167Z,1021.56
2017-02-08T03:29:01.104Z,1021.57
2017-02-08T03:30:01.041Z,1021.62
2017-02-08T03:31:00.978Z,1021.62
2017-02-08T03:32:00.914Z,1021.62
2017-02-08T03:33:00.853Z,1021.65
2017-02-08T03:34:00.790Z,1021.65
2017-02-08T03:35:00.724Z,1021.65
2017-02-08T03:36:00.661Z,1021.69
2017-02-08T03:37:00.598Z,1021.71
2017-02-08T03:38:00.535Z,1021.74
2017-02-08T03:39:00.471Z,1021.72
2017-02-08T03:40:00.409Z,1021.82
2017-02-08T03:41:00.345Z,1021.83
2017-02-08T03:42:00.280Z,1021.81
2017-02-08T03:43:00.218Z,1021.83
2017-02-08T03:44:00.155Z,1021.79
2017-02-08T03:45:00.091Z,1021.82
2017-02-08T03:46:00.028Z,1021.9
2017-02-08T03:46:59.966Z,1021.91
2017-02-08T03:47:59.902Z,1021.9
2017-02-08T03:48:59.838Z,1021.87
2017-02-08T03:49:59.776Z,1021.9
2017-02-08T03:50:59.712Z,1021.89
2017-02-08T03:51:59.649Z,1021.86
2017-02-08T03:52:59.585Z,1021.9
2017-02-08T03:53:59.522Z,1021.89
2017-02-08T03:54:59.459Z,1021.9
2017-02-08T03:55:59.397Z,1021.84
2017-02-08T03:56:59.333Z,1021.9
2017-02-08T03:57:59.269Z,1021.93
2017-02-08T03:58:59.206Z,1021.93
2017-02-08T03:59:59.143Z,1021.95
2017-02-08T04:00:59.079Z,1021.9
2017-02-08T04:01:59.019Z,1021.9
2017-02-08T04:02:58.953Z,1021.87
2017-02-08T04:03:58.890Z,1021.91
2017-02-08T04:04:58.826Z,1021.95
2017-02-08T04:05:58.764Z,1021.94
2017-02-08T04:06:58.699Z,1021.95
2017-02-08T04:07:58.636Z,1022
2017-02-08T04:08:58.574Z,1022.03
2017-02-08T04:09:58.510Z,1022
2017-02-08T04:10:58.449Z,1022.02
2017-02-08T04:11:58.384Z,1022.04
2017-02-08T04:12:58.322Z,1022.04
2017-02-08T04:13:58.257Z,1022.02
2017-02-08T04:14:58.196Z,1022.01
2017-02-08T04:15:58.131Z,1022.02
2017-02-08T04:16:58.069Z,1022.09
2017-02-08T04:17:58.005Z,1022.07
2017-02-08T04:18:57.950Z,1022.11
2017-02-08T04:19:57.878Z,1022.11
2017-02-08T04:20:57.814Z,1022.12
2017-02-08T04:21:57.750Z,1022.11
2017-02-08T04:22:57.688Z,1022.04
2017-02-08T04:23:57.624Z,1022.03
2017-02-08T04:24:57.561Z,1022.04
2017-02-08T04:25:57.498Z,1022.06
2017-02-08T04:26:57.435Z,1022.08
2017-02-08T04:27:57.376Z,1022.1
2017-02-08T04:28:57.308Z,1022.1
2017-02-08T04:29:57.247Z,1022.12
2017-02-08T04:30:57.186Z,1022.12
2017-02-08T04:31:57.117Z,1022.15
2017-02-08T04:32:57.055Z,1022.16
2017-02-08T04:33:56.993Z,1022.14
2017-02-08T04:34:56.929Z,1022.15
2017-02-08T04:35:56.865Z,1022.17
2017-02-08T04:36:56.802Z,1022.18
2017-02-08T04:37:56.738Z,1022.18
2017-02-08T04:38:56.675Z,1022.17
2017-02-08T04:39:56.611Z,1022.22
2017-02-08T04:40:56.548Z,1022.21
2017-02-08T04:41:56.485Z,1022.24
2017-02-08T04:42:56.420Z,1022.25
2017-02-08T04:43:56.357Z,1022.29
2017-02-08T04:44:56.295Z,1022.26
2017-02-08T04:45:56.232Z,1022.27
2017-02-08T04:46:56.168Z,1022.25
2017-02-08T04:47:56.104Z,1022.28
2017-02-08T04:48:56.041Z,1022.27
2017-02-08T04:49:55.978Z,1022.26
2017-02-08T04:50:55.914Z,1022.28
2017-02-08T04:51:55.852Z,1022.29
2017-02-08T04:52:55.789Z,1022.29
2017-02-08T04:53:55.724Z,1022.32
2017-02-08T04:54:55.661Z,1022.29
2017-02-08T04:55:55.598Z,1022.34
2017-02-08T04:56:55.535Z,1022.35
2017-02-08T04:57:55.471Z,1022.34
2017-02-08T04:58:55.407Z,1022.41
2017-02-08T04:59:55.345Z,1022.38
2017-02-08T05:00:55.281Z,1022.44
2017-02-08T05:01:55.217Z,1022.75
2017-02-08T05:02:55.155Z,1022.78
2017-02-08T05:03:55.092Z,1022.77
2017-02-08T05:04:55.027Z,1022.55
2017-02-08T05:05:54.963Z,1022.53
2017-02-08T05:06:54.901Z,1022.59
2017-02-08T05:07:54.838Z,1022.73
2017-02-08T05:08:54.773Z,1022.72
2017-02-08T05:09:54.710Z,1022.74
2017-02-08T05:10:54.646Z,1022.76
2017-02-08T05:11:54.586Z,1022.75
2017-02-08T05:12:54.520Z,1022.76
2017-02-08T05:13:54.457Z,1022.78
2017-02-08T05:14:54.394Z,1022.76
2017-02-08T05:15:54.330Z,1022.76
2017-02-08T05:16:54.266Z,1022.76
2017-02-08T05:17:54.203Z,1022.78
2017-02-08T05:18:54.140Z,1022.81
2017-02-08T05:19:54.077Z,1022.75
2017-02-08T05:20:54.012Z,1022.77
2017-02-08T05:21:53.949Z,1022.75
2017-02-08T05:22:53.887Z,1022.78
2017-02-08T05:23:53.823Z,1022.81
2017-02-08T05:24:53.759Z,1022.79
2017-02-08T05:25:53.696Z,1022.81
2017-02-08T05:26:53.632Z,1022.78
2017-02-08T05:27:53.568Z,1022.82
2017-02-08T05:28:53.506Z,1022.82
2017-02-08T05:29:53.443Z,1022.81
2017-02-08T05:30:53.378Z,1022.79
2017-02-08T05:31:53.315Z,1022.66
2017-02-08T05:32:53.253Z,1022.76
2017-02-08T05:33:53.190Z,1022.79
2017-02-08T05:34:53.126Z,1022.74
2017-02-08T05:35:53.061Z,1022.74
2017-02-08T05:36:52.999Z,1022.73
2017-02-08T05:37:52.934Z,1022.71
2017-02-08T05:38:52.871Z,1022.65
2017-02-08T05:39:52.807Z,1022.71
2017-02-08T05:40:52.744Z,1022.73
2017-02-08T05:41:52.680Z,1022.62
2017-02-08T05:42:52.618Z,1022.53
2017-02-08T05:43:52.553Z,1022.58
2017-02-08T05:44:52.490Z,1022.55
2017-02-08T05:45:52.428Z,1022.6
2017-02-08T05:46:52.365Z,1022.6
2017-02-08T05:47:52.302Z,1022.58
2017-02-08T05:48:52.238Z,1022.69
2017-02-08T05:49:52.173Z,1022.73
2017-02-08T05:50:52.110Z,1022.59
2017-02-08T05:51:52.048Z,1022.62
2017-02-08T05:52:51.985Z,1022.58
2017-02-08T05:53:51.920Z,1022.62
2017-02-08T05:54:51.857Z,1022.63
2017-02-08T05:55:51.793Z,1022.7
2017-02-08T05:56:51.729Z,1022.83
2017-02-08T05:57:51.666Z,1022.83
2017-02-08T05:58:51.603Z,1022.83
2017-02-08T05:59:51.539Z,1022.88
2017-02-08T06:00:51.475Z,1022.88
2017-02-08T06:01:51.413Z,1022.9
2017-02-08T06:02:51.350Z,1022.9
2017-02-08T06:03:51.284Z,1022.9
2017-02-08T06:04:51.221Z,1022.87
2017-02-08T06:05:51.159Z,1022.88
2017-02-08T06:06:51.094Z,1022.94
2017-02-08T06:07:51.031Z,1022.92
2017-02-08T06:08:50.967Z,1022.96
2017-02-08T06:09:50.903Z,1022.98
2017-02-08T06:10:50.840Z,1022.93
2017-02-08T06:11:50.777Z,1022.98
2017-02-08T06:12:50.714Z,1022.98
2017-02-08T06:13:50.650Z,1023.02
2017-02-08T06:14:50.585Z,1023.02
2017-02-08T06:15:50.523Z,1023.04
2017-02-08T06:16:50.459Z,1023.06
2017-02-08T06:17:50.394Z,1023.07
2017-02-08T06:18:50.330Z,1023.1
2017-02-08T06:19:50.271Z,1023.12
2017-02-08T06:20:50.208Z,1023.11
2017-02-08T06:21:50.141Z,1023.13
2017-02-08T06:22:50.078Z,1023.16
2017-02-08T06:23:50.014Z,1023.17
2017-02-08T06:24:49.952Z,1023.17
2017-02-08T06:25:49.890Z,1023.16
2017-02-08T06:26:49.823Z,1023.15
2017-02-08T06:27:49.760Z,1023.16
2017-02-08T06:28:49.698Z,1023.18
2017-02-08T06:29:49.632Z,1023.16
2017-02-08T06:30:49.569Z,1023.23
2017-02-08T06:31:49.506Z,1023.24
2017-02-08T06:32:49.442Z,1023.26
2017-02-08T06:33:49.378Z,1023.26
2017-02-08T06:34:49.316Z,1023.25
2017-02-08T06:35:49.254Z,1023.28
2017-02-08T06:36:49.187Z,1023.22
2017-02-08T06:37:49.125Z,1023.21
2017-02-08T06:38:49.062Z,1023.16
2017-02-08T06:39:48.997Z,1023.18
2017-02-08T06:40:48.934Z,1023.25
2017-02-08T06:41:48.871Z,1023.3
2017-02-08T06:42:48.808Z,1023.19
2017-02-08T06:43:48.744Z,1023.22
2017-02-08T06:44:48.679Z,1023.23
2017-02-08T06:45:48.617Z,1023.22
2017-02-08T06:46:48.553Z,1023.26
2017-02-08T06:47:48.489Z,1023.36
2017-02-08T06:48:48.425Z,1023.41
2017-02-08T06:49:48.362Z,1023.43
2017-02-08T06:50:48.298Z,1023.41
2017-02-08T06:51:48.234Z,1023.41
2017-02-08T06:52:48.171Z,1023.32
2017-02-08T06:53:48.109Z,1023.28
2017-02-08T06:54:48.044Z,1023.26
2017-02-08T06:55:47.981Z,1023.28
2017-02-08T06:56:47.918Z,1023.3
2017-02-08T06:57:47.855Z,1023.4
2017-02-08T06:58:47.790Z,1023.36
2017-02-08T06:59:47.726Z,1023.4
2017-02-08T07:00:47.663Z,1023.39
2017-02-08T07:01:47.600Z,1023.37
2017-02-08T07:02:47.535Z,1023.4
2017-02-08T07:03:47.472Z,1023.39
2017-02-08T07:04:47.409Z,1023.41
2017-02-08T07:05:47.344Z,1023.4
2017-02-08T07:06:47.282Z,1023.4
2017-02-08T07:07:47.217Z,1023.41
2017-02-08T07:08:47.155Z,1023.42
2017-02-08T07:09:47.091Z,1023.4
2017-02-08T07:10:47.028Z,1023.41
2017-02-08T07:11:46.963Z,1023.45
2017-02-08T07:12:46.900Z,1023.44
2017-02-08T07:13:46.835Z,1023.47
2017-02-08T07:14:46.773Z,1023.46
2017-02-08T07:15:46.709Z,1023.46
2017-02-08T07:16:46.645Z,1023.46
2017-02-08T07:17:46.581Z,1023.49
2017-02-08T07:18:46.520Z,1023.47
2017-02-08T07:19:46.454Z,1023.44
2017-02-08T07:20:46.391Z,1023.35
2017-02-08T07:21:46.328Z,1023.35
2017-02-08T07:22:46.265Z,1023.38
2017-02-08T07:23:46.200Z,1023.37
2017-02-08T07:24:46.137Z,1023.39
2017-02-08T07:25:46.075Z,1023.41
2017-02-08T07:26:46.009Z,1023.44
2017-02-08T07:27:45.947Z,1023.45
2017-02-08T07:28:45.882Z,1023.5
2017-02-08T07:29:45.819Z,1023.45
2017-02-08T07:30:45.754Z,1023.56
2017-02-08T07:31:45.692Z,1023.61
2017-02-08T07:32:45.628Z,1023.53
2017-02-08T07:33:45.564Z,1023.6
2017-02-08T07:34:45.501Z,1023.62
2017-02-08T07:35:45.437Z,1023.68
2017-02-08T07:36:45.374Z,1023.71
2017-02-08T07:37:45.311Z,1023.72
2017-02-08T07:38:45.246Z,1023.75
2017-02-08T07:39:45.182Z,1023.72
2017-02-08T07:40:45.119Z,1023.72
2017-02-08T07:41:45.055Z,1023.57
2017-02-08T07:42:44.992Z,1023.59
2017-02-08T07:43:44.928Z,1023.56
2017-02-08T07:44:44.865Z,1023.63
2017-02-08T07:45:44.800Z,1023.68
2017-02-08T07:46:44.741Z,1023.67
2017-02-08T07:47:44.674Z,1023.67
2017-02-08T07:48:44.611Z,1023.65
2017-02-08T07:49:44.552Z,1023.69
2017-02-08T07:50:44.483Z,1023.7
2017-02-08T07:51:44.419Z,1023.64
2017-02-08T07:52:44.355Z,1023.7
2017-02-08T07:53:44.292Z,1023.65
2017-02-08T07:54:44.228Z,1023.68
2017-02-08T07:55:44.169Z,1023.73
2017-02-08T07:56:44.100Z,1023.75
2017-02-08T07:57:44.040Z,1023.73
2017-02-08T07:58:43.974Z,1023.73
2017-02-08T07:59:43.911Z,1023.76
2017-02-08T08:00:43.846Z,1023.71
2017-02-08T08:01:43.783Z,1023.72
2017-02-08T08:02:43.721Z,1023.75
2017-02-08T08:03:43.656Z,1023.77
2017-02-08T08:04:43.648Z,1023.82
2017-02-08T08:05:43.529Z,1023.77
2017-02-08T08:06:43.466Z,1023.75
2017-02-08T08:07:43.402Z,1023.74
2017-02-08T08:08:43.338Z,1023.75
2017-02-08T08:09:43.274Z,1023.76
2017-02-08T08:10:43.210Z,1023.76
2017-02-08T08:11:43.146Z,1023.76
2017-02-08T08:12:43.082Z,1023.74
2017-02-08T08:13:43.019Z,1023.75
2017-02-08T08:14:42.959Z,1023.75
2017-02-08T08:15:42.892Z,1023.78
2017-02-08T08:16:42.829Z,1023.82
2017-02-08T08:17:42.766Z,1023.81
2017-02-08T08:18:42.699Z,1023.82
2017-02-08T08:19:42.637Z,1023.82
2017-02-08T08:20:42.573Z,1023.82
2017-02-08T08:21:42.510Z,1023.84
2017-02-08T08:22:42.446Z,1023.84
2017-02-08T08:23:42.382Z,1023.87
2017-02-08T08:24:42.318Z,1023.87
2017-02-08T08:25:42.255Z,1023.83
2017-02-08T08:26:42.192Z,1023.85
2017-02-08T08:27:42.127Z,1023.85
2017-02-08T08:28:42.065Z,1023.87
2017-02-08T08:29:42.001Z,1023.89
2017-02-08T08:30:41.937Z,1023.95
2017-02-08T08:31:41.874Z,1023.95
2017-02-08T08:32:41.810Z,1023.96
2017-02-08T08:33:41.745Z,1024
2017-02-08T08:34:41.683Z,1023.95
2017-02-08T08:35:41.618Z,1024
2017-02-08T08:36:41.557Z,1023.97
2017-02-08T08:37:41.491Z,1024
2017-02-08T08:38:41.427Z,1023.99
2017-02-08T08:39:41.364Z,1024.01
2017-02-08T08:40:41.301Z,1023.99
2017-02-08T08:41:41.237Z,1023.99
2017-02-08T08:42:41.176Z,1023.96
2017-02-08T08:43:41.108Z,1023.97
2017-02-08T08:44:41.045Z,1023.95
2017-02-08T08:45:40.982Z,1023.97
2017-02-08T08:46:40.919Z,1023.98
2017-02-08T08:47:40.855Z,1023.97
2017-02-08T08:48:40.791Z,1024
2017-02-08T08:49:40.728Z,1024.01
2017-02-08T08:50:40.666Z,1023.99
2017-02-08T08:51:40.601Z,1024.03
2017-02-08T08:52:40.787Z,1024.01
2017-02-08T08:53:40.500Z,1024
2017-02-08T08:54:40.413Z,1024.01
2017-02-08T08:55:40.348Z,1023.98
2017-02-08T08:56:40.285Z,1023.93
2017-02-08T08:57:40.222Z,1023.9
2017-02-08T08:58:40.156Z,1023.96
2017-02-08T08:59:40.093Z,1023.95
2017-02-08T09:00:40.030Z,1023.97
2017-02-08T09:01:39.968Z,1023.99
2017-02-08T09:02:39.901Z,1023.95
2017-02-08T09:03:39.841Z,1023.93
2017-02-08T09:04:39.776Z,1023.93
2017-02-08T09:05:40.014Z,1023.96
2017-02-08T09:06:39.649Z,1023.92
2017-02-08T09:07:39.586Z,1023.98
2017-02-08T09:08:39.521Z,1023.99
2017-02-08T09:09:39.457Z,1024
2017-02-08T09:11:39.330Z,1024.04
2017-02-08T09:12:39.270Z,1024.05
2017-02-08T09:13:39.203Z,1024.01
2017-02-08T09:14:39.140Z,1024.05
2017-02-08T09:15:39.076Z,1024.02
2017-02-08T09:16:39.262Z,1024.07
2017-02-08T09:17:38.949Z,1024.05
2017-02-08T09:18:38.886Z,1024.02
2017-02-08T09:19:38.823Z,1024.04
2017-02-08T09:20:38.758Z,1024.01
2017-02-08T09:21:38.700Z,1024.01
2017-02-08T09:22:38.631Z,1023.98
2017-02-08T09:23:38.570Z,1024.02
2017-02-08T09:24:38.503Z,1024.02
2017-02-08T09:25:38.441Z,1023.99
2017-02-08T09:26:38.377Z,1023.99
2017-02-08T09:27:38.312Z,1024.02
2017-02-08T09:28:38.251Z,1024.02
2017-02-08T09:29:38.192Z,1024
2017-02-08T09:30:38.123Z,1024
2017-02-08T09:31:38.059Z,1024.02
2017-02-08T09:32:37.996Z,1024.02
2017-02-08T09:33:37.932Z,1023.99
2017-02-08T09:34:37.869Z,1023.99
2017-02-08T09:35:37.805Z,1024.02
2017-02-08T09:36:37.741Z,1024.03
2017-02-08T09:37:37.679Z,1024.02
2017-02-08T09:38:37.615Z,1024.05
2017-02-08T09:39:37.552Z,1024.11
2017-02-08T09:40:37.489Z,1024.11
2017-02-08T09:41:37.426Z,1024.12
2017-02-08T09:42:37.360Z,1024.11
2017-02-08T09:43:37.298Z,1024.14
2017-02-08T09:44:37.233Z,1024.13
2017-02-08T09:45:37.170Z,1024.17
2017-02-08T09:46:37.106Z,1024.18
2017-02-08T09:47:37.044Z,1024.19
2017-02-08T09:48:36.979Z,1024.17
2017-02-08T09:49:36.915Z,1024.2
2017-02-08T09:50:36.852Z,1024.2
2017-02-08T09:51:36.789Z,1024.22
2017-02-08T09:52:36.725Z,1024.19
2017-02-08T09:53:36.662Z,1024.21
2017-02-08T09:54:36.597Z,1024.26
2017-02-08T09:55:36.534Z,1024.25
2017-02-08T09:56:36.472Z,1024.27
2017-02-08T09:57:36.407Z,1024.3
2017-02-08T09:58:36.343Z,1024.27
2017-02-08T09:59:36.282Z,1024.34
2017-02-08T10:00:36.216Z,1024.33
2017-02-08T10:01:36.153Z,1024.35
2017-02-08T10:02:36.089Z,1024.34
2017-02-08T10:03:36.026Z,1024.37
2017-02-08T10:04:35.965Z,1024.38
2017-02-08T10:05:35.900Z,1024.4
2017-02-08T10:06:35.835Z,1024.41
2017-02-08T10:07:35.772Z,1024.4
2017-02-08T10:08:35.708Z,1024.42
2017-02-08T10:09:35.646Z,1024.39
2017-02-08T10:10:35.932Z,1024.39
2017-02-08T10:11:35.519Z,1024.4
2017-02-08T10:12:35.454Z,1024.42
2017-02-08T10:13:35.392Z,1024.41
2017-02-08T10:14:35.328Z,1024.45
2017-02-08T10:15:35.263Z,1024.42
2017-02-08T10:16:35.201Z,1024.43
2017-02-08T10:17:35.137Z,1024.44
2017-02-08T10:18:35.074Z,1024.49
2017-02-08T10:19:35.074Z,1024.47
2017-02-08T10:20:34.948Z,1024.46
2017-02-08T10:21:34.885Z,1024.48
2017-02-08T10:22:34.820Z,1024.51
2017-02-08T10:23:34.756Z,1024.5
2017-02-08T10:24:34.694Z,1024.56
2017-02-08T10:25:34.629Z,1024.52
2017-02-08T10:26:34.566Z,1024.56
2017-02-08T10:27:34.503Z,1024.55
2017-02-08T10:28:34.440Z,1024.55
2017-02-08T10:29:34.376Z,1024.57
2017-02-08T10:30:34.314Z,1024.56
2017-02-08T10:31:34.250Z,1024.54
2017-02-08T10:32:34.188Z,1024.58
2017-02-08T10:33:34.124Z,1024.54
2017-02-08T10:34:34.060Z,1024.57
2017-02-08T10:35:33.999Z,1024.59
2017-02-08T10:36:33.937Z,1024.58
2017-02-08T10:37:33.870Z,1024.62
2017-02-08T10:38:34.058Z,1024.59
2017-02-08T10:39:33.772Z,1024.63
2017-02-08T10:40:34.030Z,1024.66
2017-02-08T10:41:33.616Z,1024.61
2017-02-08T10:42:33.555Z,1024.61
2017-02-08T10:43:33.490Z,1024.63
2017-02-08T10:44:33.428Z,1024.63
2017-02-08T10:45:33.365Z,1024.67
2017-02-08T10:46:33.301Z,1024.65
2017-02-08T10:47:33.238Z,1024.63
2017-02-08T10:48:33.190Z,1024.62
2017-02-08T10:49:33.114Z,1024.64
2017-02-08T10:50:33.047Z,1024.61
2017-02-08T10:51:32.983Z,1024.59
2017-02-08T10:53:32.859Z,1024.57
2017-02-08T10:54:32.794Z,1024.57
2017-02-08T10:55:33.111Z,1024.57
2017-02-08T10:56:32.673Z,1024.56
2017-02-08T10:57:32.603Z,1024.57
2017-02-08T10:58:32.541Z,1024.55
2017-02-08T10:59:32.478Z,1024.58
2017-02-08T11:00:32.415Z,1024.55
2017-02-08T11:01:32.352Z,1024.56
2017-02-08T11:02:45.023Z,1024.51
2017-02-08T11:03:32.526Z,1024.55
2017-02-08T11:04:32.163Z,1024.53
2017-02-08T11:05:32.110Z,1024.56
2017-02-08T11:06:32.033Z,1024.54
2017-02-08T11:07:31.971Z,1024.52
2017-02-08T11:08:31.908Z,1024.58
2017-02-08T11:09:31.843Z,1024.57
2017-02-08T11:10:31.781Z,1024.52
2017-02-08T11:11:31.717Z,1024.52
2017-02-08T11:12:31.654Z,1024.47
2017-02-08T11:13:31.590Z,1024.46
2017-02-08T11:14:31.526Z,1024.48
2017-02-08T11:15:31.465Z,1024.53
2017-02-08T11:16:31.400Z,1024.55
2017-02-08T11:17:31.336Z,1024.57
2017-02-08T11:18:31.274Z,1024.56
2017-02-08T11:19:31.211Z,1024.56
2017-02-08T11:20:31.148Z,1024.57
2017-02-08T11:21:31.086Z,1024.59
2017-02-08T11:22:31.020Z,1024.59
2017-02-08T11:23:30.959Z,1024.59
2017-02-08T11:24:30.894Z,1024.56
2017-02-08T11:25:30.830Z,1024.6
2017-02-08T11:26:30.766Z,1024.53
2017-02-08T11:27:30.707Z,1024.5
2017-02-08T11:28:30.641Z,1024.51
2017-02-08T11:29:30.588Z,1024.53
2017-02-08T11:30:30.514Z,1024.53
2017-02-08T11:31:30.457Z,1024.54
2017-02-08T11:32:30.387Z,1024.54
2017-02-08T11:33:30.323Z,1024.53
2017-02-08T11:34:30.260Z,1024.5
2017-02-08T11:35:30.196Z,1024.52
2017-02-08T11:36:30.133Z,1024.53
2017-02-08T11:37:30.069Z,1024.5
2017-02-08T11:38:30.007Z,1024.51
2017-02-08T11:39:30.146Z,1024.49
2017-02-08T11:40:29.879Z,1024.51
2017-02-08T11:41:29.816Z,1024.53
2017-02-08T11:42:29.754Z,1024.5
2017-02-08T11:43:29.689Z,1024.52
2017-02-08T11:44:29.625Z,1024.58
2017-02-08T11:45:29.811Z,1024.56
2017-02-08T11:46:29.554Z,1024.6
2017-02-08T11:47:29.436Z,1024.53
2017-02-08T11:48:29.373Z,1024.54
2017-02-08T11:49:29.310Z,1024.57
2017-02-08T11:50:29.245Z,1024.53
2017-02-08T11:51:29.231Z,1024.5
2017-02-08T11:52:29.118Z,1024.49
2017-02-08T11:53:29.054Z,1024.49
2017-02-08T11:54:28.992Z,1024.51
2017-02-08T11:55:28.928Z,1024.53
2017-02-08T11:56:28.866Z,1024.48
2017-02-08T11:57:28.801Z,1024.51
2017-02-08T11:58:28.739Z,1024.51
2017-02-08T11:59:28.676Z,1024.45
2017-02-08T12:00:28.612Z,1024.49
2017-02-08T12:01:28.586Z,1024.51
2017-02-08T12:02:28.485Z,1024.48
2017-02-08T12:03:28.422Z,1024.52
2017-02-08T12:04:28.360Z,1024.54
2017-02-08T12:05:28.396Z,1024.52
2017-02-08T12:06:28.232Z,1024.55
2017-02-08T12:07:28.169Z,1024.55
2017-02-08T12:08:28.104Z,1024.54
2017-02-08T12:09:28.041Z,1024.54
2017-02-08T12:10:28.167Z,1024.58